createdAt,value
2018-02-11T00:01:53.485Z,1.90
2018-02-11T00:04:20.373Z,2.00
2018-02-11T00:06:47.224Z,2.00
2018-02-11T00:09:14.080Z,1.80
2018-02-11T00:11:40.878Z,1.80
2018-02-11T00:14:07.734Z,1.70
2018-02-11T00:16:34.657Z,1.70
2018-02-11T00:19:01.466Z,1.60
2018-02-11T00:21:28.277Z,1.60
2018-02-11T00:23:55.245Z,1.70
2018-02-11T00:26:22.072Z,1.60
2018-02-11T00:28:49.612Z,1.60
2018-02-11T00:31:16.437Z,1.60
2018-02-11T00:33:43.352Z,1.70
2018-02-11T00:36:10.925Z,2.00
2018-02-11T00:38:37.741Z,1.90
2018-02-11T00:41:05.321Z,2.10
2018-02-11T00:43:32.214Z,2.10
2018-02-11T00:45:59.073Z,2.10
2018-02-11T00:48:25.857Z,2.00
2018-02-11T00:50:53.418Z,2.00
2018-02-11T00:53:21.041Z,1.80
2018-02-11T00:55:47.997Z,1.80
2018-02-11T00:58:14.850Z,1.80
2018-02-11T01:00:41.689Z,1.80
2018-02-11T01:03:09.305Z,1.80
2018-02-11T01:05:36.125Z,1.80
2018-02-11T01:08:09.992Z,1.80
2018-02-11T01:10:36.942Z,1.60
2018-02-11T01:13:04.561Z,1.40
2018-02-11T01:15:31.382Z,1.40
2018-02-11T01:17:58.203Z,1.30
2018-02-11T01:20:25.752Z,1.50
2018-02-11T01:22:53.419Z,1.60
2018-02-11T01:25:20.981Z,1.70
2018-02-11T01:27:47.806Z,1.70
2018-02-11T01:30:14.652Z,1.70
2018-02-11T01:32:41.450Z,1.70
2018-02-11T01:35:08.269Z,1.70
2018-02-11T01:37:35.169Z,1.40
2018-02-11T01:40:02.030Z,1.40
2018-02-11T01:42:28.950Z,1.30
2018-02-11T01:44:55.750Z,1.30
2018-02-11T01:47:22.585Z,1.30
2018-02-11T01:50:01.786Z,1.30
2018-02-11T01:52:29.402Z,1.40
2018-02-11T01:54:56.229Z,1.40
2018-02-11T01:57:23.036Z,1.30
2018-02-11T01:59:49.872Z,1.50
2018-02-11T02:02:16.841Z,1.60
2018-02-11T02:04:43.665Z,1.60
2018-02-11T02:07:11.233Z,1.50
2018-02-11T02:09:38.806Z,1.50
2018-02-11T02:12:05.653Z,1.50
2018-02-11T02:14:32.474Z,1.40
2018-02-11T02:17:00.050Z,1.40
2018-02-11T02:19:27.618Z,1.40
2018-02-11T02:21:54.434Z,1.30
2018-02-11T02:24:22.081Z,1.60
2018-02-11T02:26:48.958Z,1.50
2018-02-11T02:29:16.486Z,1.50
2018-02-11T02:31:43.342Z,1.50
2018-02-11T02:34:10.945Z,1.70
2018-02-11T02:36:37.998Z,1.60
2018-02-11T02:39:04.894Z,1.70
2018-02-11T02:41:32.473Z,1.50
2018-02-11T02:44:00.122Z,1.60
2018-02-11T02:46:26.937Z,1.50
2018-02-11T02:48:53.744Z,1.60
2018-02-11T02:51:20.614Z,1.40
2018-02-11T02:53:47.534Z,1.40
2018-02-11T02:56:14.358Z,1.30
2018-02-11T02:58:41.213Z,1.40
2018-02-11T03:01:08.034Z,1.40
2018-02-11T03:03:34.936Z,1.50
2018-02-11T03:06:01.782Z,1.60
2018-02-11T03:08:28.624Z,1.60
2018-02-11T03:10:55.463Z,1.60
2018-02-11T03:13:23.089Z,1.50
2018-02-11T03:15:49.929Z,1.50
2018-02-11T03:18:16.778Z,1.40
2018-02-11T03:20:43.586Z,1.40
2018-02-11T03:23:10.525Z,1.50
2018-02-11T03:25:37.353Z,1.60
2018-02-11T03:28:04.918Z,1.50
2018-02-11T03:30:31.741Z,1.50
2018-02-11T03:32:58.685Z,1.40
2018-02-11T03:35:25.489Z,1.40
2018-02-11T03:37:52.325Z,1.50
2018-02-11T03:40:19.161Z,1.70
2018-02-11T03:42:46.166Z,1.80
2018-02-11T03:45:13.733Z,1.70
2018-02-11T03:47:41.298Z,1.70
2018-02-11T03:50:08.884Z,1.80
2018-02-11T03:52:35.786Z,1.70
2018-02-11T03:55:03.394Z,1.80
2018-02-11T03:57:30.918Z,1.70
2018-02-11T03:59:58.492Z,1.60
2018-02-11T04:02:25.417Z,1.60
2018-02-11T04:04:53.014Z,1.40
2018-02-11T04:07:19.816Z,1.40
2018-02-11T04:09:47.425Z,1.40
2018-02-11T04:12:14.262Z,1.40
2018-02-11T04:14:41.062Z,1.40
2018-02-11T04:17:08.006Z,1.40
2018-02-11T04:19:35.549Z,1.60
2018-02-11T04:22:02.384Z,1.50
2018-02-11T04:24:29.366Z,1.60
2018-02-11T04:26:56.173Z,1.60
2018-02-11T04:29:23.033Z,1.70
2018-02-11T04:31:50.734Z,1.50
2018-02-11T04:34:17.601Z,1.50
2018-02-11T04:36:44.417Z,1.50
2018-02-11T04:39:11.249Z,1.60
2018-02-11T04:41:38.810Z,1.40
2018-02-11T04:44:06.438Z,1.30
2018-02-11T04:46:33.249Z,1.30
2018-02-11T04:49:00.043Z,1.40
2018-02-11T04:51:34.554Z,1.50
2018-02-11T04:54:02.209Z,1.60
2018-02-11T04:56:29.031Z,1.60
2018-02-11T04:58:56.622Z,1.60
2018-02-11T05:01:24.202Z,1.50
2018-02-11T05:03:51.118Z,1.50
2018-02-11T05:06:18.674Z,1.50
2018-02-11T05:08:45.534Z,1.50
2018-02-11T05:11:12.413Z,1.50
2018-02-11T05:13:39.310Z,1.50
2018-02-11T05:16:06.893Z,1.40
2018-02-11T05:18:34.424Z,1.50
2018-02-11T05:21:01.365Z,1.40
2018-02-11T05:23:28.189Z,1.50
2018-02-11T05:25:55.005Z,1.40
2018-02-11T05:28:21.853Z,1.40
2018-02-11T05:30:48.633Z,1.30
2018-02-11T05:33:15.458Z,1.50
2018-02-11T05:35:42.406Z,1.60
2018-02-11T05:38:09.225Z,1.60
2018-02-11T05:40:36.030Z,1.50
2018-02-11T05:43:03.669Z,1.50
2018-02-11T05:45:30.521Z,1.50
2018-02-11T05:47:57.385Z,1.50
2018-02-11T05:50:24.293Z,1.60
2018-02-11T05:52:51.109Z,1.80
2018-02-11T05:55:17.941Z,1.80
2018-02-11T05:57:44.770Z,1.70
2018-02-11T06:00:11.645Z,1.70
2018-02-11T06:02:38.598Z,1.60
2018-02-11T06:05:05.456Z,1.60
2018-02-11T06:07:32.987Z,1.60
2018-02-11T06:09:59.833Z,1.60
2018-02-11T06:12:26.697Z,1.70
2018-02-11T06:14:53.562Z,1.60
2018-02-11T06:17:21.185Z,1.70
2018-02-11T06:19:48.061Z,1.70
2018-02-11T06:22:14.997Z,1.70
2018-02-11T06:24:41.793Z,1.70
2018-02-11T06:27:08.645Z,1.80
2018-02-11T06:29:35.470Z,1.80
2018-02-11T06:32:02.314Z,1.90
2018-02-11T06:34:29.294Z,1.80
2018-02-11T06:36:56.102Z,1.80
2018-02-11T06:39:23.053Z,1.70
2018-02-11T06:41:49.869Z,1.70
2018-02-11T06:44:17.535Z,1.60
2018-02-11T06:46:46.435Z,1.60
2018-02-11T06:49:21.864Z,1.50
2018-02-11T06:51:48.696Z,1.50
2018-02-11T06:54:16.337Z,1.40
2018-02-11T06:56:43.266Z,1.40
2018-02-11T06:59:10.282Z,1.40
2018-02-11T07:01:37.189Z,1.30
2018-02-11T07:04:04.981Z,1.20
2018-02-11T07:06:32.081Z,1.30
2018-02-11T07:09:00.478Z,1.50
2018-02-11T07:11:27.553Z,1.40
2018-02-11T07:13:55.534Z,1.40
2018-02-11T07:16:22.577Z,1.30
2018-02-11T07:18:49.554Z,1.20
2018-02-11T07:21:16.479Z,1.40
2018-02-11T07:23:44.275Z,1.20
2018-02-11T07:26:12.023Z,1.30
2018-02-11T07:28:39.617Z,1.30
2018-02-11T07:31:06.478Z,1.30
2018-02-11T07:33:34.082Z,1.30
2018-02-11T07:36:00.961Z,1.30
2018-02-11T07:38:28.035Z,1.30
2018-02-11T07:40:54.918Z,1.30
2018-02-11T07:43:21.801Z,1.30
2018-02-11T07:45:49.405Z,1.30
2018-02-11T07:48:16.226Z,1.30
2018-02-11T07:50:43.163Z,1.30
2018-02-11T07:53:10.961Z,1.50
2018-02-11T07:55:37.926Z,1.50
2018-02-11T07:58:04.905Z,1.60
2018-02-11T08:00:31.796Z,1.70
2018-02-11T08:02:58.659Z,1.70
2018-02-11T08:05:25.637Z,1.70
2018-02-11T08:07:53.250Z,1.70
2018-02-11T08:10:20.072Z,1.70
2018-02-11T08:12:46.997Z,1.80
2018-02-11T08:15:14.953Z,1.70
2018-02-11T08:17:41.893Z,1.70
2018-02-11T08:20:08.721Z,1.70
2018-02-11T08:22:35.577Z,1.70
2018-02-11T08:25:02.458Z,1.70
2018-02-11T08:27:30.026Z,2.00
2018-02-11T08:29:57.145Z,2.00
2018-02-11T08:32:24.994Z,2.00
2018-02-11T08:34:51.830Z,2.00
2018-02-11T08:37:18.690Z,2.00
2018-02-11T08:39:46.252Z,2.20
2018-02-11T08:42:13.893Z,2.20
2018-02-11T08:44:40.774Z,2.20
2018-02-11T08:47:07.882Z,2.20
2018-02-11T08:49:34.801Z,2.20
2018-02-11T08:52:01.618Z,2.40
2018-02-11T08:54:28.545Z,2.50
2018-02-11T08:57:03.058Z,2.40
2018-02-11T08:59:30.668Z,2.50
2018-02-11T09:01:57.477Z,2.50
2018-02-11T09:04:25.475Z,2.70
2018-02-11T09:06:52.614Z,2.60
2018-02-11T09:09:19.705Z,2.80
2018-02-11T09:11:47.451Z,2.80
2018-02-11T09:14:15.165Z,3.00
2018-02-11T09:16:43.720Z,2.90
2018-02-11T09:19:12.743Z,2.90
2018-02-11T09:21:39.618Z,2.90
2018-02-11T09:24:06.520Z,2.90
2018-02-11T09:26:33.486Z,3.00
2018-02-11T09:29:00.338Z,3.10
2018-02-11T09:31:27.179Z,3.10
2018-02-11T09:33:54.810Z,3.10
2018-02-11T09:36:21.622Z,3.10
2018-02-11T09:38:48.441Z,3.10
2018-02-11T09:41:15.301Z,3.40
2018-02-11T09:43:42.285Z,3.40
2018-02-11T09:46:09.118Z,3.50
2018-02-11T09:48:35.937Z,3.40
2018-02-11T09:51:02.865Z,3.20
2018-02-11T09:53:30.470Z,3.60
2018-02-11T09:55:57.289Z,3.60
2018-02-11T09:58:24.150Z,3.90
2018-02-11T10:00:50.970Z,4.00
2018-02-11T10:03:17.767Z,4.10
2018-02-11T10:05:45.366Z,3.90
2018-02-11T10:08:12.189Z,3.90
2018-02-11T10:10:38.998Z,4.00
2018-02-11T10:13:05.929Z,4.30
2018-02-11T10:15:40.461Z,4.70
2018-02-11T10:18:07.323Z,4.70
2018-02-11T10:20:34.170Z,4.90
2018-02-11T10:23:01.058Z,4.70
2018-02-11T10:25:27.897Z,4.90
2018-02-11T10:27:54.710Z,5.10
2018-02-11T10:30:21.574Z,5.10
2018-02-11T10:32:48.430Z,5.20
2018-02-11T10:35:15.268Z,5.40
2018-02-11T10:37:42.086Z,5.90
2018-02-11T10:40:08.929Z,6.20
2018-02-11T10:42:35.930Z,6.30
2018-02-11T10:45:03.520Z,6.90
2018-02-11T10:47:30.355Z,6.80
2018-02-11T10:49:57.205Z,7.30
2018-02-11T10:52:24.102Z,8.00
2018-02-11T10:54:50.947Z,9.10
2018-02-11T10:57:17.777Z,10.20
2018-02-11T10:59:44.613Z,10.90
2018-02-11T11:02:11.509Z,11.40
2018-02-11T11:04:39.075Z,12.10
2018-02-11T11:07:05.897Z,12.10
2018-02-11T11:09:32.878Z,11.80
2018-02-11T11:11:59.709Z,11.60
2018-02-11T11:14:26.614Z,12.20
2018-02-11T11:16:53.573Z,12.40
2018-02-11T11:19:21.173Z,13.60
2018-02-11T11:21:48.002Z,13.50
2018-02-11T11:24:14.946Z,14.00
2018-02-11T11:26:41.806Z,14.90
2018-02-11T11:29:08.646Z,15.00
2018-02-11T11:31:35.505Z,14.90
2018-02-11T11:34:02.401Z,15.10
2018-02-11T11:36:29.961Z,16.30
2018-02-11T11:38:57.547Z,16.90
2018-02-11T11:41:24.698Z,16.80
2018-02-11T11:43:51.701Z,16.70
2018-02-11T11:46:18.518Z,17.20
2018-02-11T11:48:45.406Z,17.10
2018-02-11T11:51:12.317Z,17.00
2018-02-11T11:53:39.160Z,17.70
2018-02-11T11:56:06.198Z,17.30
2018-02-11T11:58:33.870Z,17.60
2018-02-11T12:01:00.966Z,17.60
2018-02-11T12:03:28.118Z,17.50
2018-02-11T12:05:55.049Z,18.40
2018-02-11T12:08:22.770Z,18.70
2018-02-11T12:10:49.662Z,18.70
2018-02-11T12:13:17.333Z,19.90
2018-02-11T12:15:45.021Z,20.00
2018-02-11T12:18:11.911Z,20.00
2018-02-11T12:20:38.741Z,21.10
2018-02-11T12:23:05.745Z,21.50
2018-02-11T12:25:32.859Z,21.00
2018-02-11T12:28:00.537Z,21.30
2018-02-11T12:30:27.445Z,21.30
2018-02-11T12:32:54.406Z,19.80
2018-02-11T12:35:21.361Z,20.60
2018-02-11T12:37:48.241Z,21.10
2018-02-11T12:40:15.329Z,21.80
2018-02-11T12:42:42.688Z,21.80
2018-02-11T12:45:09.671Z,22.10
2018-02-11T12:47:36.630Z,21.20
2018-02-11T12:50:03.722Z,21.90
2018-02-11T12:52:30.719Z,22.30
2018-02-11T12:54:57.623Z,22.00
2018-02-11T12:57:25.399Z,23.00
2018-02-11T12:59:52.399Z,23.00
2018-02-11T13:02:20.326Z,20.30
2018-02-11T13:04:47.370Z,21.20
2018-02-11T13:07:14.325Z,22.80
2018-02-11T13:09:42.018Z,20.70
2018-02-11T13:12:09.013Z,20.60
2018-02-11T13:14:36.042Z,20.30
2018-02-11T13:17:02.846Z,19.40
2018-02-11T13:19:29.659Z,18.80
2018-02-11T13:21:57.427Z,17.80
2018-02-11T13:24:25.026Z,17.20
2018-02-11T13:26:51.957Z,17.10
2018-02-11T13:29:18.998Z,18.60
2018-02-11T13:31:46.016Z,19.80
2018-02-11T13:34:12.937Z,21.60
2018-02-11T13:36:39.950Z,21.00
2018-02-11T13:39:06.814Z,19.00
2018-02-11T13:41:33.783Z,17.80
2018-02-11T13:44:01.573Z,13.40
2018-02-11T13:46:28.461Z,13.30
2018-02-11T13:48:56.077Z,12.70
2018-02-11T13:51:22.945Z,12.60
2018-02-11T13:53:49.933Z,11.60
2018-02-11T13:56:17.149Z,11.00
2018-02-11T13:58:44.062Z,10.60
2018-02-11T14:01:11.155Z,9.90
2018-02-11T14:03:38.886Z,9.00
2018-02-11T14:06:05.838Z,9.00
2018-02-11T14:08:32.874Z,8.50
2018-02-11T14:10:59.898Z,8.50
2018-02-11T14:13:26.909Z,8.60
2018-02-11T14:15:53.760Z,8.60
2018-02-11T14:18:20.585Z,8.20
2018-02-11T14:20:47.617Z,7.90
2018-02-11T14:23:14.615Z,8.00
2018-02-11T14:25:41.449Z,7.80
2018-02-11T14:28:09.161Z,7.70
2018-02-11T14:30:36.140Z,7.60
2018-02-11T14:33:03.191Z,7.60
2018-02-11T14:35:30.150Z,7.60
2018-02-11T14:37:57.142Z,7.40
2018-02-11T14:40:24.804Z,6.90
2018-02-11T14:42:51.800Z,6.90
2018-02-11T14:45:18.743Z,6.90
2018-02-11T14:47:46.318Z,6.90
2018-02-11T14:50:13.896Z,6.70
2018-02-11T14:52:41.853Z,6.70
2018-02-11T14:55:16.939Z,6.40
2018-02-11T14:57:44.138Z,6.40
2018-02-11T15:00:10.991Z,6.10
2018-02-11T15:02:38.606Z,5.90
2018-02-11T15:05:05.499Z,5.90
2018-02-11T15:07:33.078Z,6.00
2018-02-11T15:09:59.897Z,6.00
2018-02-11T15:12:27.563Z,6.10
2018-02-11T15:15:02.062Z,6.10
2018-02-11T15:17:32.329Z,5.50
2018-02-11T15:19:59.423Z,5.50
2018-02-11T15:22:26.349Z,5.60
2018-02-11T15:24:53.458Z,5.50
2018-02-11T15:27:20.438Z,5.40
2018-02-11T15:29:47.298Z,5.20
2018-02-11T15:32:14.190Z,5.10
2018-02-11T15:34:41.858Z,5.20
2018-02-11T15:37:08.696Z,5.10
2018-02-11T15:39:35.555Z,5.10
2018-02-11T15:42:02.462Z,5.10
2018-02-11T15:44:30.102Z,5.10
2018-02-11T15:46:56.929Z,5.00
2018-02-11T15:49:23.797Z,5.00
2018-02-11T15:51:51.709Z,4.90
2018-02-11T15:54:18.687Z,4.90
2018-02-11T15:56:45.602Z,4.90
2018-02-11T15:59:19.915Z,4.90
2018-02-11T16:01:46.890Z,4.90
2018-02-11T16:04:14.534Z,4.90
2018-02-11T16:06:41.439Z,4.90
2018-02-11T16:09:08.326Z,4.80
2018-02-11T16:11:35.264Z,4.80
2018-02-11T16:14:03.007Z,4.60
2018-02-11T16:16:29.896Z,4.60
2018-02-11T16:18:56.842Z,4.70
2018-02-11T16:21:23.833Z,4.70
2018-02-11T16:23:50.762Z,4.70
2018-02-11T16:26:18.482Z,4.50
2018-02-11T16:28:45.331Z,4.50
2018-02-11T16:31:13.093Z,4.40
2018-02-11T16:33:40.211Z,4.30
2018-02-11T16:36:07.258Z,4.20
2018-02-11T16:38:34.326Z,4.10
2018-02-11T16:41:01.318Z,3.90
2018-02-11T16:43:28.373Z,3.80
2018-02-11T16:45:55.312Z,3.70
2018-02-11T16:48:22.366Z,3.50
2018-02-11T16:50:49.985Z,3.40
2018-02-11T16:53:17.066Z,3.40
2018-02-11T16:55:44.023Z,3.30
2018-02-11T16:58:11.778Z,3.20
2018-02-11T17:00:38.953Z,3.20
2018-02-11T17:03:06.530Z,3.20
2018-02-11T17:05:34.504Z,3.20
2018-02-11T17:08:02.074Z,3.10
2018-02-11T17:10:29.022Z,3.00
2018-02-11T17:12:55.895Z,3.00
2018-02-11T17:15:22.890Z,3.00
2018-02-11T17:17:49.765Z,2.90
2018-02-11T17:20:16.778Z,3.00
2018-02-11T17:22:44.005Z,3.00
2018-02-11T17:25:11.817Z,2.90
2018-02-11T17:27:38.770Z,2.80
2018-02-11T17:30:05.649Z,2.90
2018-02-11T17:32:32.567Z,2.90
2018-02-11T17:35:00.200Z,2.90
2018-02-11T17:37:27.146Z,3.00
2018-02-11T17:39:54.174Z,2.90
2018-02-11T17:42:21.942Z,2.90
2018-02-11T17:44:48.895Z,2.90
2018-02-11T17:47:15.822Z,2.90
2018-02-11T17:49:42.810Z,2.90
2018-02-11T17:52:10.480Z,2.70
2018-02-11T17:54:38.224Z,2.70
2018-02-11T17:57:05.075Z,2.60
2018-02-11T17:59:32.191Z,2.60
2018-02-11T18:01:59.259Z,2.60
2018-02-11T18:04:27.029Z,2.60
2018-02-11T18:06:54.806Z,2.50
2018-02-11T18:09:22.499Z,2.50
2018-02-11T18:11:49.394Z,2.50
2018-02-11T18:14:16.416Z,2.50
2018-02-11T18:16:43.434Z,2.50
2018-02-11T18:19:10.369Z,2.40
2018-02-11T18:21:37.433Z,2.50
2018-02-11T18:24:04.321Z,2.50
2018-02-11T18:26:31.268Z,2.50
2018-02-11T18:28:58.230Z,2.50
2018-02-11T18:31:25.306Z,2.60
2018-02-11T18:33:53.142Z,2.60
2018-02-11T18:36:20.878Z,2.50
2018-02-11T18:38:47.866Z,2.50
2018-02-11T18:41:14.810Z,2.50
2018-02-11T18:43:41.922Z,2.50
2018-02-11T18:46:08.805Z,2.60
2018-02-11T18:48:35.725Z,2.70
2018-02-11T18:51:03.478Z,2.70
2018-02-11T18:53:30.422Z,2.70
2018-02-11T18:55:57.359Z,2.70
2018-02-11T18:58:24.235Z,2.70
2018-02-11T19:00:51.317Z,2.70
2018-02-11T19:03:18.334Z,2.70
2018-02-11T19:05:45.279Z,2.80
2018-02-11T19:08:12.995Z,2.80
2018-02-11T19:10:40.022Z,2.80
2018-02-11T19:13:07.000Z,2.80
2018-02-11T19:15:33.947Z,2.80
2018-02-11T19:18:01.594Z,2.80
2018-02-11T19:20:28.671Z,2.80
2018-02-11T19:22:55.702Z,2.70
2018-02-11T19:25:23.422Z,2.70
2018-02-11T19:27:50.445Z,2.70
2018-02-11T19:30:17.486Z,2.70
2018-02-11T19:32:44.343Z,2.70
2018-02-11T19:35:11.394Z,2.80
2018-02-11T19:37:38.379Z,2.80
2018-02-11T19:40:05.437Z,2.90
2018-02-11T19:42:33.107Z,2.90
2018-02-11T19:45:00.298Z,2.90
2018-02-11T19:47:27.334Z,2.90
2018-02-11T19:49:55.063Z,2.80
2018-02-11T19:52:22.027Z,2.80
2018-02-11T19:54:50.126Z,2.80
2018-02-11T19:57:17.031Z,2.70
2018-02-11T19:59:44.349Z,2.70
2018-02-11T20:02:11.290Z,2.70
2018-02-11T20:04:39.063Z,2.70
2018-02-11T20:07:06.067Z,2.60
2018-02-11T20:09:33.726Z,2.70
2018-02-11T20:12:03.162Z,2.70
2018-02-11T20:14:30.335Z,2.80
2018-02-11T20:16:57.229Z,2.80
2018-02-11T20:19:24.830Z,2.80
2018-02-11T20:21:51.862Z,2.70
2018-02-11T20:24:19.559Z,2.70
2018-02-11T20:26:46.619Z,2.70
2018-02-11T20:29:14.264Z,2.80
2018-02-11T20:31:41.089Z,2.80
2018-02-11T20:34:08.130Z,2.80
2018-02-11T20:36:35.502Z,2.90
2018-02-11T20:39:02.562Z,2.90
2018-02-11T20:41:29.570Z,2.80
2018-02-11T20:43:56.582Z,2.70
2018-02-11T20:46:23.542Z,2.70
2018-02-11T20:48:53.443Z,2.70
2018-02-11T20:51:20.459Z,2.60
2018-02-11T20:53:47.350Z,2.50
2018-02-11T20:56:15.910Z,2.40
2018-02-11T20:58:42.876Z,2.40
2018-02-11T21:01:09.991Z,2.40
2018-02-11T21:03:38.253Z,2.30
2018-02-11T21:06:05.315Z,2.20
2018-02-11T21:08:32.379Z,2.20
2018-02-11T21:10:59.370Z,2.00
2018-02-11T21:13:26.359Z,1.90
2018-02-11T21:15:53.694Z,1.80
2018-02-11T21:18:21.236Z,1.90
2018-02-11T21:20:49.399Z,1.80
2018-02-11T21:23:18.094Z,1.70
2018-02-11T21:25:45.767Z,1.70
2018-02-11T21:28:14.055Z,1.70
2018-02-11T21:30:40.965Z,1.70
2018-02-11T21:33:08.619Z,1.60
2018-02-11T21:35:35.514Z,1.60
2018-02-11T21:38:02.533Z,1.50
2018-02-11T21:40:29.449Z,1.50
2018-02-11T21:42:57.306Z,1.50
2018-02-11T21:45:24.278Z,1.50
2018-02-11T21:47:51.325Z,1.50
2018-02-11T21:50:18.404Z,1.50
2018-02-11T21:52:45.315Z,1.60
2018-02-11T21:55:12.308Z,1.60
2018-02-11T21:57:39.333Z,1.50
2018-02-11T22:02:33.410Z,1.60
2018-02-11T22:05:00.729Z,1.80
2018-02-11T22:07:27.666Z,1.70
2018-02-11T22:09:55.301Z,1.60
2018-02-11T22:12:22.367Z,1.60
2018-02-11T22:14:49.324Z,1.60
2018-02-11T22:17:16.409Z,1.60
2018-02-11T22:19:43.490Z,1.60
2018-02-11T22:22:10.369Z,1.60
2018-02-11T22:24:37.202Z,1.50
2018-02-11T22:27:04.194Z,1.40
2018-02-11T22:29:31.165Z,1.40
2018-02-11T22:31:58.086Z,1.50
2018-02-11T22:34:25.070Z,1.50
2018-02-11T22:36:52.836Z,1.50
2018-02-11T22:39:20.453Z,1.40
2018-02-11T22:41:47.264Z,1.40
2018-02-11T22:44:14.297Z,1.40
2018-02-11T22:46:41.366Z,1.40
2018-02-11T22:49:08.255Z,1.30
2018-02-11T22:51:36.106Z,1.30
2018-02-11T22:54:03.094Z,1.30
2018-02-11T22:56:29.965Z,1.30
2018-02-11T23:01:23.655Z,1.40
2018-02-11T23:03:50.663Z,1.40
2018-02-11T23:06:17.541Z,1.40
2018-02-11T23:08:44.649Z,1.40
2018-02-11T23:11:11.597Z,1.50
2018-02-11T23:13:38.597Z,1.50
2018-02-11T23:16:05.500Z,1.50
2018-02-11T23:18:32.493Z,1.60
2018-02-11T23:20:59.382Z,1.70
2018-02-11T23:23:27.404Z,1.70
2018-02-11T23:25:54.274Z,1.80
2018-02-11T23:28:21.085Z,1.90
2018-02-11T23:30:48.183Z,1.90
2018-02-11T23:33:15.846Z,1.90
2018-02-11T23:35:42.661Z,1.90
2018-02-11T23:38:10.410Z,2.00
2018-02-11T23:40:37.441Z,2.00
2018-02-11T23:43:04.513Z,2.10
2018-02-11T23:45:31.494Z,2.00
2018-02-11T23:47:58.337Z,1.90
2018-02-11T23:50:25.369Z,1.90
2018-02-11T23:52:52.281Z,1.90
2018-02-11T23:55:19.297Z,2.00
2018-02-11T23:57:46.197Z,1.90
